Time;durP1;ratioP1;P1;durP2;ratioP2;P2;SDS_P1;SDS_P2;PMS_P1;PMS_P2;Temp;Humidity;BMP_temperature;BMP_pressure;BME280_temperature;BME280_humidity;BME280_pressure;Samples;Min_cycle;Max_cycle;Signal;HPM_P1;HPM_P2
2021/06/10 00:02:10;;;;;;;3.90;1.60;;;17.80;99.90;;;;;;5063595;28;20020;-74
2021/06/10 00:04:36;;;;;;;3.10;1.70;;;17.70;99.90;;;;;;5055757;28;20033;-75
2021/06/10 00:07:02;;;;;;;5.07;1.45;;;17.60;99.90;;;;;;5048966;28;20036;-74
2021/06/10 00:09:28;;;;;;;5.00;1.58;;;17.80;99.90;;;;;;5065561;28;20033;-74
2021/06/10 00:11:54;;;;;;;3.17;1.70;;;17.90;99.90;;;;;;5065274;28;20101;-74
2021/06/10 00:14:19;;;;;;;3.05;1.63;;;18.10;99.90;;;;;;5062616;28;20475;-74
2021/06/10 00:16:45;;;;;;;3.40;1.60;;;18.10;99.90;;;;;;5063788;28;20051;-74
2021/06/10 00:19:13;;;;;;;3.10;1.70;;;18.10;99.90;;;;;;5047074;28;20051;-74
2021/06/10 00:21:42;;;;;;;4.18;1.80;;;18.10;99.90;;;;;;5046414;28;20021;-75
2021/06/10 00:24:08;;;;;;;2.90;1.40;;;18.00;99.90;;;;;;5063976;28;20028;-75
2021/06/10 00:26:33;;;;;;;6.38;1.98;;;17.90;99.90;;;;;;5066179;28;20051;-75
2021/06/10 00:28:59;;;;;;;3.80;1.85;;;18.10;99.90;;;;;;5049323;28;20407;-75
2021/06/10 00:31:25;;;;;;;3.97;1.88;;;18.10;99.90;;;;;;5046266;28;20025;-75
2021/06/10 00:33:51;;;;;;;4.43;1.65;;;18.00;99.90;;;;;;5060468;28;20028;-75
2021/06/10 00:36:16;;;;;;;2.70;1.52;;;17.90;99.90;;;;;;5063906;28;20023;-75
2021/06/10 00:38:43;;;;;;;4.38;1.60;;;17.80;99.90;;;;;;5048580;28;20148;-75
2021/06/10 00:41:09;;;;;;;3.83;1.88;;;17.80;99.90;;;;;;5065548;28;20425;-74
2021/06/10 00:43:35;;;;;;;2.95;1.85;;;17.80;99.90;;;;;;5051821;28;20044;-74
2021/06/10 00:46:00;;;;;;;4.32;2.20;;;17.80;99.90;;;;;;5047976;28;20025;-75
2021/06/10 00:48:26;;;;;;;3.05;1.77;;;17.70;99.90;;;;;;5055649;28;20028;-75
2021/06/10 00:50:52;;;;;;;3.30;1.75;;;17.70;99.90;;;;;;5057801;28;20118;-74
2021/06/10 00:53:21;;;;;;;3.83;1.42;;;18.10;99.90;;;;;;5067973;28;20047;-75
2021/06/10 00:55:49;;;;;;;3.45;1.80;;;18.00;99.90;;;;;;5059154;28;20025;-75
2021/06/10 00:58:16;;;;;;;2.85;1.52;;;18.10;99.90;;;;;;5050207;28;20040;-74
2021/06/10 01:00:41;;;;;;;3.10;1.63;;;18.10;99.90;;;;;;5060741;28;20032;-74
2021/06/10 01:03:07;;;;;;;5.10;1.92;;;18.00;99.90;;;;;;5050111;28;20033;-74
2021/06/10 01:05:33;;;;;;;3.55;1.92;;;17.90;99.90;;;;;;5059748;28;20028;-74
2021/06/10 01:08:36;;;;;;;4.13;2.03;;;18.00;99.90;;;;;;5059769;28;20036;-74
2021/06/10 01:11:10;;;;;;;2.80;1.67;;;18.00;99.90;;;;;;5061437;28;20077;-74
2021/06/10 01:14:09;;;;;;;3.35;1.90;;;18.10;99.90;;;;;;5069303;28;20466;-74
2021/06/10 01:16:37;;;;;;;5.15;1.90;;;18.20;99.90;;;;;;5049361;28;20052;-74
2021/06/10 01:19:14;;;;;;;3.55;1.73;;;17.90;99.90;;;;;;5049200;28;20054;-74
2021/06/10 01:21:43;;;;;;;3.33;1.83;;;17.90;99.90;;;;;;5056036;28;20021;-74
2021/06/10 01:24:29;;;;;;;2.65;1.58;;;18.10;99.90;;;;;;5047354;28;20526;-74
2021/06/10 01:27:18;;;;;;;4.38;2.08;;;18.00;99.90;;;;;;5047300;28;20029;-74
2021/06/10 01:29:46;;;;;;;3.45;1.63;;;18.10;99.90;;;;;;5048163;28;20029;-74
2021/06/10 01:32:12;;;;;;;7.63;1.80;;;18.20;99.90;;;;;;5052593;28;20478;-75
2021/06/10 01:34:38;;;;;;;4.68;1.73;;;18.10;99.90;;;;;;5052651;28;20467;-74
2021/06/10 01:37:05;;;;;;;3.85;1.83;;;18.10;99.90;;;;;;5048932;28;20029;-74
2021/06/10 01:39:31;;;;;;;3.90;1.60;;;18.10;99.90;;;;;;5050642;28;20542;-74
2021/06/10 01:41:57;;;;;;;2.55;1.70;;;18.10;99.90;;;;;;5060080;28;20047;-74
2021/06/10 01:44:25;;;;;;;2.83;1.70;;;18.00;99.90;;;;;;5062660;28;20056;-74
2021/06/10 01:46:51;;;;;;;3.20;1.80;;;18.00;99.90;;;;;;5048833;28;20028;-74
2021/06/10 01:49:19;;;;;;;4.43;1.73;;;18.10;99.90;;;;;;5061621;28;20194;-74
2021/06/10 01:51:46;;;;;;;5.28;2.28;;;18.10;99.90;;;;;;5066794;28;20033;-74
2021/06/10 01:54:14;;;;;;;2.75;1.95;;;18.00;99.90;;;;;;5060513;28;20020;-74
2021/06/10 01:56:42;;;;;;;5.10;2.17;;;17.90;99.90;;;;;;5052647;28;20096;-74
2021/06/10 01:59:10;;;;;;;3.25;1.88;;;17.90;99.90;;;;;;5052273;28;20136;-74
2021/06/10 02:01:38;;;;;;;3.15;1.98;;;17.90;99.90;;;;;;5048451;28;20047;-74
2021/06/10 02:04:04;;;;;;;3.45;1.90;;;18.00;99.90;;;;;;5052111;28;20029;-74
2021/06/10 02:06:32;;;;;;;3.58;2.00;;;18.20;99.90;;;;;;5048410;28;20060;-74
2021/06/10 02:08:59;;;;;;;2.92;1.88;;;18.10;99.90;;;;;;5060074;28;20544;-74
2021/06/10 02:11:25;;;;;;;3.10;2.00;;;18.20;99.90;;;;;;5068342;28;20032;-74
2021/06/10 02:13:51;;;;;;;4.20;1.83;;;18.10;99.90;;;;;;5055375;28;20041;-74
2021/06/10 02:16:19;;;;;;;3.75;1.67;;;18.10;99.90;;;;;;5054189;28;20454;-74
2021/06/10 02:18:47;;;;;;;3.20;1.50;;;18.20;99.90;;;;;;5058438;28;20511;-74
2021/06/10 02:21:13;;;;;;;4.93;2.10;;;18.20;99.90;;;;;;5062624;28;20047;-74
2021/06/10 02:23:41;;;;;;;4.22;2.05;;;18.20;99.90;;;;;;5055904;28;20052;-74
2021/06/10 02:26:09;;;;;;;5.10;2.10;;;18.10;99.90;;;;;;5063606;28;20367;-74
2021/06/10 02:28:35;;;;;;;4.28;1.90;;;18.20;99.90;;;;;;5047996;28;20033;-74
2021/06/10 02:31:03;;;;;;;2.90;1.65;;;18.20;99.90;;;;;;5063087;28;20059;-74
2021/06/10 02:33:29;;;;;;;4.78;1.58;;;18.20;99.90;;;;;;5051289;28;20024;-74
2021/06/10 02:35:55;;;;;;;4.88;2.03;;;18.20;99.90;;;;;;5047790;28;20021;-74
2021/06/10 02:38:24;;;;;;;3.42;1.95;;;18.10;99.90;;;;;;5047665;28;20112;-74
2021/06/10 02:40:52;;;;;;;4.40;2.20;;;18.10;99.90;;;;;;5066397;28;20479;-74
2021/06/10 02:43:18;;;;;;;3.47;2.08;;;18.10;99.90;;;;;;5066799;28;20016;-74
2021/06/10 02:45:47;;;;;;;3.60;1.65;;;18.30;99.90;;;;;;5067107;28;20025;-74
2021/06/10 02:48:13;;;;;;;4.90;2.00;;;18.20;99.90;;;;;;5053071;28;20029;-74
2021/06/10 02:50:40;;;;;;;6.78;2.10;;;18.20;99.90;;;;;;5065051;28;20024;-74
2021/06/10 02:53:14;;;;;;;5.43;2.10;;;18.30;99.90;;;;;;5067384;28;20029;-74
2021/06/10 02:55:41;;;;;;;4.18;2.10;;;18.30;99.90;;;;;;5064460;28;20116;-74
2021/06/10 02:58:08;;;;;;;18.83;2.92;;;18.30;99.90;;;;;;5056190;28;20549;-74
2021/06/10 03:00:35;;;;;;;4.38;1.90;;;18.20;99.90;;;;;;5060279;28;20495;-74
2021/06/10 03:03:01;;;;;;;4.85;2.30;;;18.20;99.90;;;;;;5044937;28;20104;-74
2021/06/10 03:05:29;;;;;;;4.18;2.22;;;18.10;99.90;;;;;;5047694;28;20037;-74
2021/06/10 03:07:56;;;;;;;6.45;2.10;;;18.10;99.90;;;;;;5045266;28;20032;-74
2021/06/10 03:10:25;;;;;;;6.30;2.20;;;18.20;99.90;;;;;;5045839;28;20037;-74
2021/06/10 03:12:51;;;;;;;3.42;2.00;;;18.10;99.90;;;;;;5044855;28;20029;-73
2021/06/10 03:15:19;;;;;;;2.80;1.33;;;18.10;99.90;;;;;;5049900;28;20025;-75
2021/06/10 03:17:45;;;;;;;3.85;2.28;;;18.10;99.90;;;;;;5060177;28;20587;-74
2021/06/10 03:20:11;;;;;;;4.28;1.88;;;18.10;99.90;;;;;;5046781;28;20025;-74
2021/06/10 03:22:37;;;;;;;3.08;1.83;;;18.10;99.90;;;;;;5044509;28;20095;-74
2021/06/10 03:25:06;;;;;;;3.30;1.63;;;18.20;99.90;;;;;;5054201;28;20051;-74
2021/06/10 03:27:32;;;;;;;2.60;1.50;;;18.00;99.90;;;;;;5059313;28;20025;-74
2021/06/10 03:29:58;;;;;;;4.13;1.80;;;17.90;99.90;;;;;;5058466;28;20056;-74
2021/06/10 03:32:28;;;;;;;3.60;1.88;;;17.90;99.90;;;;;;5064729;28;20068;-74
2021/06/10 03:34:57;;;;;;;4.35;2.10;;;18.00;99.90;;;;;;5051151;28;20060;-74
2021/06/10 03:37:24;;;;;;;4.65;2.13;;;18.00;99.90;;;;;;5055064;28;20512;-74
2021/06/10 03:39:54;;;;;;;5.13;2.20;;;17.90;99.90;;;;;;5044279;28;20040;-74
2021/06/10 03:42:21;;;;;;;4.32;2.10;;;18.10;99.90;;;;;;5057754;28;20028;-74
2021/06/10 03:44:49;;;;;;;10.05;2.58;;;18.00;99.90;;;;;;5055464;28;20025;-74
2021/06/10 03:47:16;;;;;;;4.05;1.73;;;18.00;99.90;;;;;;5059255;28;20505;-74
2021/06/10 03:49:42;;;;;;;5.22;1.70;;;18.00;99.90;;;;;;5053860;28;20033;-74
2021/06/10 03:52:08;;;;;;;5.47;2.25;;;17.90;99.90;;;;;;5044343;28;20486;-75
2021/06/10 03:54:33;;;;;;;2.88;1.70;;;18.00;99.90;;;;;;5050066;28;20035;-74
2021/06/10 03:56:59;;;;;;;3.15;1.83;;;18.10;99.90;;;;;;5053755;28;20033;-74
2021/06/10 03:59:25;;;;;;;5.20;1.90;;;18.20;99.90;;;;;;5044315;28;20039;-74
2021/06/10 04:01:51;;;;;;;3.58;1.88;;;18.20;99.90;;;;;;5044579;28;20024;-74
2021/06/10 04:04:18;;;;;;;5.68;2.13;;;18.20;99.90;;;;;;5045455;28;20031;-75
2021/06/10 04:06:44;;;;;;;5.00;1.77;;;18.20;99.90;;;;;;5049020;28;20024;-74
2021/06/10 04:09:10;;;;;;;3.80;1.92;;;18.20;99.90;;;;;;5062361;28;20028;-74
2021/06/10 04:11:40;;;;;;;3.05;1.85;;;18.10;99.90;;;;;;5045083;28;20032;-74
2021/06/10 04:14:06;;;;;;;4.03;1.85;;;18.10;99.90;;;;;;5046910;28;20579;-74
2021/06/10 04:16:32;;;;;;;3.53;2.20;;;17.90;99.90;;;;;;5064776;28;20083;-74
2021/06/10 04:18:58;;;;;;;3.95;1.88;;;18.00;99.90;;;;;;5049208;28;20896;-74
2021/06/10 04:21:24;;;;;;;5.13;2.22;;;17.90;99.90;;;;;;5055550;28;20036;-74
2021/06/10 04:23:51;;;;;;;4.07;2.10;;;17.90;99.90;;;;;;5048292;28;20664;-74
2021/06/10 04:26:17;;;;;;;4.25;2.15;;;18.00;99.90;;;;;;5067878;28;20115;-74
2021/06/10 04:28:47;;;;;;;3.80;2.00;;;17.90;99.90;;;;;;5050992;28;20029;-74
2021/06/10 04:31:17;;;;;;;4.03;2.20;;;17.80;99.90;;;;;;5057168;28;20037;-74
2021/06/10 04:33:43;;;;;;;3.53;1.90;;;18.00;99.90;;;;;;5047490;28;20468;-74
2021/06/10 04:36:10;;;;;;;3.75;2.10;;;18.00;99.90;;;;;;5065194;28;20052;-74
2021/06/10 04:38:36;;;;;;;3.47;1.90;;;18.10;99.90;;;;;;5055602;28;20877;-74
2021/06/10 04:41:03;;;;;;;3.42;2.22;;;18.10;99.90;;;;;;5060060;28;20013;-74
2021/06/10 04:43:28;;;;;;;3.85;2.08;;;18.20;99.90;;;;;;5047883;28;20032;-75
2021/06/10 04:45:56;;;;;;;3.03;1.63;;;18.10;99.90;;;;;;5051244;28;20368;-74
2021/06/10 04:48:22;;;;;;;3.60;2.20;;;18.10;99.90;;;;;;5054377;28;20108;-74
2021/06/10 04:50:48;;;;;;;3.17;1.90;;;18.10;99.90;;;;;;5063599;28;20178;-74
2021/06/10 04:53:14;;;;;;;5.03;1.80;;;18.10;99.90;;;;;;5048060;28;20124;-74
2021/06/10 04:55:40;;;;;;;5.70;1.98;;;18.20;99.90;;;;;;5047181;28;20505;-74
2021/06/10 04:58:06;;;;;;;4.13;2.30;;;18.20;99.90;;;;;;5049563;28;20040;-74
2021/06/10 05:00:33;;;;;;;5.15;2.08;;;18.20;99.90;;;;;;5056302;28;20032;-74
2021/06/10 05:03:00;;;;;;;2.67;1.77;;;18.30;99.90;;;;;;5047488;28;20155;-73
2021/06/10 05:05:25;;;;;;;3.40;2.05;;;18.30;99.90;;;;;;5048440;28;20040;-75
2021/06/10 05:07:51;;;;;;;3.90;2.33;;;18.20;99.90;;;;;;5047232;28;20352;-74
2021/06/10 05:10:17;;;;;;;3.30;1.83;;;18.20;99.90;;;;;;5061486;28;20494;-74
2021/06/10 05:12:43;;;;;;;4.28;2.05;;;18.40;99.90;;;;;;5057992;28;20044;-73
2021/06/10 05:15:09;;;;;;;3.80;1.67;;;18.40;99.90;;;;;;5046161;28;20190;-74
2021/06/10 05:17:35;;;;;;;4.57;2.05;;;18.30;99.90;;;;;;5046483;28;20571;-74
2021/06/10 05:20:01;;;;;;;4.00;2.15;;;18.30;99.90;;;;;;5050353;28;20166;-74
2021/06/10 05:22:27;;;;;;;3.50;2.08;;;18.30;99.90;;;;;;5062001;28;20063;-74
2021/06/10 05:24:53;;;;;;;5.32;2.35;;;18.40;99.90;;;;;;5046149;28;20036;-74
2021/06/10 05:27:19;;;;;;;4.38;1.95;;;18.50;99.90;;;;;;5052151;28;20490;-74
2021/06/10 05:29:45;;;;;;;3.05;1.85;;;18.60;99.90;;;;;;5046898;28;20045;-74
2021/06/10 05:32:10;;;;;;;5.40;1.83;;;18.60;99.90;;;;;;5053501;28;20546;-75
2021/06/10 05:34:36;;;;;;;3.55;2.20;;;18.70;99.90;;;;;;5061599;28;20028;-73
2021/06/10 05:37:02;;;;;;;3.25;1.73;;;18.80;99.90;;;;;;5052703;28;20083;-73
2021/06/10 05:39:28;;;;;;;6.53;2.30;;;18.80;99.90;;;;;;5046432;28;20467;-73
2021/06/10 05:41:55;;;;;;;4.47;2.25;;;18.80;99.90;;;;;;5046740;28;20032;-73
2021/06/10 05:44:20;;;;;;;7.30;2.42;;;18.90;99.90;;;;;;5047288;28;20062;-73
2021/06/10 05:46:48;;;;;;;2.80;1.55;;;19.00;99.90;;;;;;5046358;28;20028;-74
2021/06/10 05:49:17;;;;;;;2.72;1.73;;;19.00;99.90;;;;;;5046126;28;20033;-74
2021/06/10 05:51:44;;;;;;;5.07;2.38;;;19.00;99.90;;;;;;5046385;28;20025;-73
2021/06/10 05:54:09;;;;;;;6.97;2.38;;;19.10;99.90;;;;;;5046348;28;20591;-73
2021/06/10 05:56:35;;;;;;;6.25;2.47;;;19.10;99.90;;;;;;5046396;28;20087;-73
2021/06/10 05:59:01;;;;;;;4.57;2.60;;;19.00;99.90;;;;;;5046506;28;20499;-73
2021/06/10 06:01:27;;;;;;;3.67;2.05;;;19.00;99.90;;;;;;5049541;28;20039;-73
2021/06/10 06:03:53;;;;;;;4.97;2.20;;;19.00;99.90;;;;;;5052084;28;20028;-73
2021/06/10 06:06:19;;;;;;;5.53;2.58;;;19.10;99.90;;;;;;5046210;28;20031;-74
2021/06/10 06:08:46;;;;;;;4.75;2.60;;;19.10;99.90;;;;;;5046579;28;20037;-73
2021/06/10 06:11:12;;;;;;;4.95;2.38;;;18.90;99.90;;;;;;5046714;28;20028;-73
2021/06/10 06:13:45;;;;;;;5.60;2.03;;;18.90;99.90;;;;;;5046244;28;20029;-73
2021/06/10 06:16:13;;;;;;;4.18;1.98;;;19.10;99.90;;;;;;5049921;28;20059;-73
2021/06/10 06:18:39;;;;;;;5.60;2.33;;;19.30;99.90;;;;;;5048190;28;20037;-76
2021/06/10 06:21:06;;;;;;;4.65;2.22;;;19.30;99.90;;;;;;5046492;28;20029;-76
2021/06/10 06:23:32;;;;;;;4.32;2.10;;;19.40;99.90;;;;;;5049402;28;20753;-75
2021/06/10 06:26:00;;;;;;;5.88;2.28;;;19.10;99.90;;;;;;5045340;28;20454;-75
2021/06/10 06:28:26;;;;;;;3.65;2.08;;;19.20;99.90;;;;;;5045339;28;20032;-75
2021/06/10 06:30:52;;;;;;;3.90;2.25;;;19.30;99.90;;;;;;5045542;28;20052;-79
2021/06/10 06:33:19;;;;;;;5.72;2.00;;;19.20;99.90;;;;;;5043866;28;20068;-80
2021/06/10 06:35:45;;;;;;;4.13;2.22;;;19.40;99.90;;;;;;5045473;28;20061;-76
2021/06/10 06:38:11;;;;;;;4.30;1.92;;;19.40;99.90;;;;;;5044867;28;20041;-76
2021/06/10 06:40:38;;;;;;;5.55;2.30;;;19.50;99.90;;;;;;5044703;28;20032;-76
2021/06/10 06:43:05;;;;;;;5.72;2.60;;;19.60;99.90;;;;;;5045230;28;20082;-79
2021/06/10 06:45:31;;;;;;;4.72;2.53;;;19.60;99.50;;;;;;5045328;28;20067;-75
2021/06/10 06:47:57;;;;;;;3.25;1.90;;;19.60;99.90;;;;;;5045122;28;20090;-76
2021/06/10 06:50:23;;;;;;;4.15;2.40;;;19.70;99.90;;;;;;5044773;28;20033;-74
2021/06/10 06:52:48;;;;;;;3.72;2.22;;;19.70;99.90;;;;;;5044954;28;20099;-74
2021/06/10 06:55:14;;;;;;;5.05;1.70;;;19.60;99.20;;;;;;5044723;28;20056;-74
2021/06/10 06:57:40;;;;;;;9.02;2.33;;;19.50;99.20;;;;;;5042740;28;20059;-75
2021/06/10 07:00:06;;;;;;;9.05;2.53;;;19.70;99.20;;;;;;5051229;28;20037;-74
2021/06/10 07:02:32;;;;;;;6.22;2.70;;;19.80;99.60;;;;;;5042893;28;20024;-74
2021/06/10 07:04:57;;;;;;;4.47;2.28;;;19.90;99.90;;;;;;5044252;28;20479;-74
2021/06/10 07:07:23;;;;;;;4.50;2.28;;;19.90;99.90;;;;;;5044060;28;20109;-74
2021/06/10 07:09:49;;;;;;;3.28;2.13;;;19.80;99.90;;;;;;5046974;28;20068;-74
2021/06/10 07:12:15;;;;;;;4.45;2.50;;;19.90;99.90;;;;;;5044213;28;20076;-74
2021/06/10 07:14:41;;;;;;;4.55;2.42;;;20.10;99.60;;;;;;5055787;28;20033;-74
2021/06/10 07:17:06;;;;;;;3.97;2.05;;;20.60;99.70;;;;;;5044304;28;20106;-74
2021/06/10 07:19:32;;;;;;;6.18;2.17;;;20.70;98.80;;;;;;5044392;28;20514;-74
2021/06/10 07:21:58;;;;;;;4.30;2.38;;;20.80;98.30;;;;;;5044768;28;20505;-74
2021/06/10 07:24:23;;;;;;;3.63;2.50;;;21.00;98.50;;;;;;5044689;28;20037;-73
2021/06/10 07:26:49;;;;;;;5.18;2.35;;;21.00;97.80;;;;;;5044633;28;20024;-74
2021/06/10 07:29:17;;;;;;;5.03;2.55;;;21.70;97.70;;;;;;5044373;28;20017;-74
2021/06/10 07:31:43;;;;;;;6.30;2.00;;;22.80;96.50;;;;;;5044504;28;20047;-74
2021/06/10 07:34:09;;;;;;;4.03;2.00;;;24.00;94.80;;;;;;5051138;28;20028;-74
2021/06/10 07:36:35;;;;;;;7.47;2.47;;;24.80;93.70;;;;;;5045848;28;20029;-74
2021/06/10 07:39:06;;;;;;;3.30;2.08;;;25.70;92.70;;;;;;5044130;28;20040;-74
2021/06/10 07:41:33;;;;;;;4.78;1.90;;;26.10;91.70;;;;;;5044232;28;20021;-74
2021/06/10 07:43:58;;;;;;;4.53;2.35;;;26.10;91.50;;;;;;5044391;28;20056;-74
2021/06/10 07:46:24;;;;;;;3.88;2.03;;;26.40;91.50;;;;;;5044196;28;20079;-74
2021/06/10 07:48:50;;;;;;;5.78;2.40;;;26.30;90.90;;;;;;5044127;28;20039;-74
2021/06/10 07:51:16;;;;;;;3.40;2.25;;;25.40;92.00;;;;;;5044554;28;20025;-74
2021/06/10 07:53:42;;;;;;;4.28;2.35;;;25.30;92.00;;;;;;5044685;28;20032;-74
2021/06/10 07:56:09;;;;;;;4.85;2.30;;;25.00;92.40;;;;;;5044206;28;20013;-74
2021/06/10 07:58:35;;;;;;;3.80;2.42;;;24.90;92.60;;;;;;5043785;28;20047;-74
2021/06/10 08:01:02;;;;;;;3.13;1.92;;;24.60;93.10;;;;;;5043943;28;20029;-74
2021/06/10 08:03:28;;;;;;;3.35;2.17;;;24.60;93.40;;;;;;5043699;28;20028;-75
2021/06/10 08:05:55;;;;;;;5.57;2.20;;;24.30;93.30;;;;;;5044203;28;20083;-74
2021/06/10 08:08:21;;;;;;;4.43;2.17;;;24.20;93.80;;;;;;5043702;28;20552;-75
2021/06/10 08:10:49;;;;;;;3.60;2.30;;;24.70;93.00;;;;;;5049180;28;20025;-74
2021/06/10 08:13:17;;;;;;;4.50;2.30;;;24.90;92.80;;;;;;5043526;28;20044;-74
2021/06/10 08:15:42;;;;;;;4.03;1.98;;;24.80;92.60;;;;;;5043868;28;20033;-74
2021/06/10 08:18:08;;;;;;;3.45;2.15;;;24.50;91.90;;;;;;5044032;28;20386;-74
2021/06/10 08:20:34;;;;;;;3.28;1.85;;;23.70;93.00;;;;;;5043697;28;20025;-74
2021/06/10 08:23:01;;;;;;;5.22;2.10;;;23.60;93.50;;;;;;5043763;28;20537;-74
2021/06/10 08:25:29;;;;;;;4.22;2.42;;;23.50;93.60;;;;;;5043992;28;20028;-75
2021/06/10 08:27:56;;;;;;;3.05;2.10;;;23.30;93.00;;;;;;5043705;28;20044;-74
2021/06/10 08:30:23;;;;;;;3.15;1.92;;;23.30;93.60;;;;;;5043363;28;20060;-74
2021/06/10 08:32:49;;;;;;;3.83;2.22;;;23.40;93.80;;;;;;5044031;28;20013;-74
2021/06/10 08:35:18;;;;;;;3.50;2.05;;;23.40;94.30;;;;;;5043677;28;20539;-74
2021/06/10 08:37:44;;;;;;;8.38;2.90;;;23.80;94.00;;;;;;5044167;28;20025;-75
2021/06/10 08:40:11;;;;;;;4.45;2.50;;;24.20;93.80;;;;;;5063376;28;20486;-75
2021/06/10 08:42:43;;;;;;;3.63;2.25;;;24.50;93.60;;;;;;5063742;28;20028;-74
2021/06/10 08:45:11;;;;;;;3.08;2.08;;;24.80;92.90;;;;;;5063580;28;20032;-74
2021/06/10 08:47:39;;;;;;;3.90;2.25;;;24.90;92.30;;;;;;5063547;28;20029;-74
2021/06/10 08:50:07;;;;;;;3.47;2.10;;;24.80;92.40;;;;;;5046537;28;20041;-74
2021/06/10 08:52:33;;;;;;;3.70;2.38;;;24.90;92.70;;;;;;5044012;28;20025;-74
2021/06/10 08:54:59;;;;;;;3.83;2.47;;;25.20;92.60;;;;;;5043685;28;20078;-74
2021/06/10 08:57:25;;;;;;;3.72;2.20;;;25.30;91.60;;;;;;5043970;28;20025;-74
2021/06/10 08:59:50;;;;;;;3.70;2.00;;;25.10;91.50;;;;;;5043281;28;20041;-75
2021/06/10 09:02:16;;;;;;;5.97;2.45;;;24.90;91.50;;;;;;5044986;28;20032;-74
2021/06/10 09:04:42;;;;;;;3.35;2.08;;;24.70;92.10;;;;;;5047811;28;20032;-74
2021/06/10 09:07:09;;;;;;;5.53;2.58;;;24.90;91.50;;;;;;5045894;28;20031;-74
2021/06/10 09:09:37;;;;;;;7.63;2.67;;;25.00;92.30;;;;;;5046463;28;20029;-75
2021/06/10 09:12:06;;;;;;;4.85;2.15;;;24.90;92.10;;;;;;5046807;28;20036;-75
2021/06/10 09:14:51;;;;;;;5.20;2.40;;;25.10;91.70;;;;;;5046868;28;20661;-74
2021/06/10 09:17:38;;;;;;;4.50;2.75;;;25.50;92.10;;;;;;5045947;28;20099;-74
2021/06/10 09:20:24;;;;;;;4.55;2.53;;;25.30;91.50;;;;;;5053368;28;20119;-73
2021/06/10 09:22:52;;;;;;;4.35;2.28;;;25.70;91.20;;;;;;5066938;28;20754;-73
2021/06/10 09:25:21;;;;;;;3.53;1.85;;;25.80;91.20;;;;;;5066796;28;20052;-73
2021/06/10 09:27:56;;;;;;;3.83;2.30;;;25.80;90.20;;;;;;5067342;28;20052;-73
2021/06/10 09:30:50;;;;;;;4.28;2.20;;;26.10;90.90;;;;;;5060515;28;20033;-73
2021/06/10 09:33:19;;;;;;;4.32;2.10;;;25.70;91.30;;;;;;5051913;28;20025;-73
2021/06/10 09:35:45;;;;;;;6.22;1.80;;;25.90;91.30;;;;;;5066731;28;20031;-73
2021/06/10 09:38:21;;;;;;;4.55;2.50;;;26.00;90.00;;;;;;5066621;28;20032;-73
2021/06/10 09:40:51;;;;;;;6.10;2.72;;;25.80;90.40;;;;;;5059521;28;20025;-73
2021/06/10 09:43:19;;;;;;;3.90;2.40;;;25.80;91.30;;;;;;5046306;28;20041;-73
2021/06/10 09:45:51;;;;;;;4.78;2.80;;;26.40;91.60;;;;;;5045820;28;20021;-73
2021/06/10 09:48:29;;;;;;;4.50;2.10;;;26.40;91.00;;;;;;5047245;28;20449;-74
2021/06/10 09:50:55;;;;;;;5.78;2.30;;;26.00;90.40;;;;;;5045725;28;20586;-74
2021/06/10 09:53:23;;;;;;;3.92;2.33;;;26.10;90.90;;;;;;5044792;28;20666;-73
2021/06/10 09:55:53;;;;;;;4.60;2.85;;;26.30;90.90;;;;;;5044374;28;20705;-73
2021/06/10 09:58:20;;;;;;;4.45;2.33;;;26.40;91.30;;;;;;5044974;28;20388;-73
2021/06/10 10:00:45;;;;;;;6.50;2.75;;;26.40;90.80;;;;;;5044384;28;20701;-73
2021/06/10 10:03:26;;;;;;;10.20;3.97;;;26.40;90.70;;;;;;5044493;28;20040;-73
2021/06/10 10:05:58;;;;;;;5.05;2.13;;;26.70;91.20;;;;;;5044857;28;20025;-73
2021/06/10 10:08:25;;;;;;;4.20;2.40;;;26.80;91.50;;;;;;5045880;28;20044;-73
2021/06/10 10:10:51;;;;;;;4.65;2.95;;;27.10;90.90;;;;;;5045961;28;20032;-72
2021/06/10 10:13:18;;;;;;;3.58;2.42;;;27.20;90.60;;;;;;5044962;28;20021;-73
2021/06/10 10:15:45;;;;;;;4.28;3.00;;;27.30;89.90;;;;;;5045955;28;20083;-74
2021/06/10 10:18:11;;;;;;;5.20;2.30;;;27.00;89.90;;;;;;5046001;28;20032;-73
2021/06/10 10:20:38;;;;;;;4.40;2.10;;;27.20;91.40;;;;;;5060835;28;20590;-73
2021/06/10 10:23:05;;;;;;;4.40;2.42;;;27.30;90.60;;;;;;5065568;28;20028;-75
2021/06/10 10:25:31;;;;;;;3.88;2.55;;;26.90;89.50;;;;;;5069836;28;20032;-73
2021/06/10 10:28:00;;;;;;;5.32;2.70;;;27.20;90.20;;;;;;5072793;28;20024;-73
2021/06/10 10:30:26;;;;;;;5.78;2.38;;;27.10;91.10;;;;;;5066162;28;20039;-73
2021/06/10 10:32:52;;;;;;;6.03;2.42;;;27.20;91.40;;;;;;5069497;28;20037;-72
2021/06/10 10:35:23;;;;;;;7.70;3.05;;;27.10;91.30;;;;;;5072436;28;20031;-73
2021/06/10 10:37:50;;;;;;;4.95;2.35;;;27.30;91.00;;;;;;5070055;28;20048;-73
2021/06/10 10:40:24;;;;;;;5.70;2.35;;;27.50;90.70;;;;;;5057237;28;20032;-73
2021/06/10 10:42:54;;;;;;;5.00;2.30;;;27.70;91.20;;;;;;5044286;28;20369;-73
2021/06/10 10:45:21;;;;;;;5.25;2.60;;;27.90;90.80;;;;;;5044665;28;20021;-73
2021/06/10 10:47:49;;;;;;;3.47;2.30;;;27.80;90.30;;;;;;5044800;28;20033;-73
2021/06/10 10:50:29;;;;;;;4.45;2.22;;;28.00;91.00;;;;;;5043607;28;20055;-73
2021/06/10 10:52:57;;;;;;;5.88;2.15;;;28.10;90.70;;;;;;5044970;28;20091;-73
2021/06/10 10:55:29;;;;;;;3.65;2.10;;;27.90;90.50;;;;;;5044260;28;20086;-73
2021/06/10 10:58:05;;;;;;;4.07;2.10;;;28.00;89.00;;;;;;5044668;28;20112;-73
2021/06/10 11:01:01;;;;;;;4.10;2.28;;;27.70;89.50;;;;;;5046140;28;20087;-73
2021/06/10 11:03:33;;;;;;;5.35;2.80;;;28.20;90.30;;;;;;5051620;28;20052;-73
2021/06/10 11:06:21;;;;;;;4.18;2.58;;;28.70;90.10;;;;;;5064159;28;20393;-73
2021/06/10 11:08:59;;;;;;;3.50;1.95;;;28.80;88.50;;;;;;5064177;28;20109;-73
2021/06/10 11:11:57;;;;;;;3.42;2.33;;;28.60;88.30;;;;;;5057463;28;20463;-73
2021/06/10 11:14:39;;;;;;;3.75;2.50;;;28.80;87.40;;;;;;5063443;28;20060;-73
2021/06/10 11:17:22;;;;;;;5.65;2.20;;;28.50;84.90;;;;;;5063917;28;20596;-72
2021/06/10 11:20:01;;;;;;;6.32;2.20;;;28.40;88.30;;;;;;5064189;28;20032;-73
2021/06/10 11:22:39;;;;;;;6.05;2.90;;;28.40;88.00;;;;;;5052047;28;20140;-73
2021/06/10 11:25:11;;;;;;;4.60;2.72;;;29.00;88.30;;;;;;5043531;28;20039;-72
2021/06/10 11:27:40;;;;;;;4.28;2.47;;;28.80;87.70;;;;;;5043948;28;20024;-73
2021/06/10 11:30:13;;;;;;;4.07;2.60;;;28.50;87.20;;;;;;5044089;28;20028;-73
2021/06/10 11:32:58;;;;;;;4.97;2.10;;;28.20;87.50;;;;;;5044070;28;20028;-73
2021/06/10 11:35:32;;;;;;;4.53;2.25;;;27.90;88.80;;;;;;5041822;28;20350;-72
2021/06/10 11:37:58;;;;;;;;;;;27.90;89.10;;;;;;5044036;28;20029;-73
2021/06/10 11:40:24;;;;;;;4.68;2.42;;;27.80;88.10;;;;;;5043762;28;19917;-73
2021/06/10 11:42:50;;;;;;;5.68;2.20;;;27.50;87.80;;;;;;5051767;28;20465;-73
2021/06/10 11:45:20;;;;;;;2.78;1.80;;;27.60;87.10;;;;;;5059746;28;20063;-73
2021/06/10 11:47:46;;;;;;;3.45;2.08;;;27.70;87.00;;;;;;5043447;28;20063;-73
2021/06/10 11:50:28;;;;;;;3.67;2.30;;;27.60;86.30;;;;;;5041971;28;20029;-73
2021/06/10 11:52:59;;;;;;;7.63;2.70;;;27.60;86.70;;;;;;5048860;28;20071;-73
2021/06/10 11:55:28;;;;;;;4.00;1.85;;;27.70;87.40;;;;;;5063152;28;20078;-73
2021/06/10 11:57:55;;;;;;;3.20;1.83;;;27.60;86.90;;;;;;5062183;28;20037;-73
2021/06/10 12:00:30;;;;;;;3.50;2.03;;;27.70;86.80;;;;;;5061771;28;20108;-73
2021/06/10 12:03:00;;;;;;;9.07;2.97;;;27.60;86.20;;;;;;5057698;28;20111;-72
2021/06/10 12:05:27;;;;;;;3.20;1.95;;;27.80;87.20;;;;;;5041699;28;20055;-72
2021/06/10 12:08:21;;;;;;;3.47;2.13;;;28.10;86.40;;;;;;5041569;28;20029;-72
2021/06/10 12:11:00;;;;;;;3.05;1.98;;;28.20;85.30;;;;;;5042088;28;20025;-72
2021/06/10 12:13:28;;;;;;;4.95;2.08;;;28.20;85.20;;;;;;5043280;28;20056;-72
2021/06/10 12:15:55;;;;;;;3.80;2.13;;;28.40;85.70;;;;;;5046322;28;20516;-72
2021/06/10 12:18:22;;;;;;;4.45;1.92;;;28.30;86.10;;;;;;5043690;28;20025;-72
2021/06/10 12:21:16;;;;;;;4.60;1.90;;;28.20;85.40;;;;;;5044231;28;20749;-72
2021/06/10 12:23:46;;;;;;;4.80;2.22;;;28.10;84.00;;;;;;5041900;28;20065;-72
2021/06/10 12:26:16;;;;;;;3.00;1.75;;;28.10;83.60;;;;;;5043940;28;20028;-73
2021/06/10 12:28:49;;;;;;;3.20;1.95;;;27.90;84.50;;;;;;5048737;28;20028;-73
2021/06/10 12:31:37;;;;;;;2.90;1.92;;;28.00;84.70;;;;;;5063919;28;20024;-72
2021/06/10 12:34:08;;;;;;;3.28;1.50;;;28.20;83.80;;;;;;5063964;28;20070;-72
2021/06/10 12:36:41;;;;;;;3.38;2.05;;;28.00;84.20;;;;;;5063983;28;20034;-72
2021/06/10 12:39:11;;;;;;;3.65;2.05;;;28.00;84.70;;;;;;5062097;28;20116;-72
2021/06/10 12:41:47;;;;;;;3.40;2.00;;;27.90;83.80;;;;;;5048045;28;20036;-72
2021/06/10 12:44:19;;;;;;;3.03;2.05;;;28.00;84.50;;;;;;5047892;28;20044;-72
2021/06/10 12:46:57;;;;;;;6.03;2.10;;;28.00;85.80;;;;;;5048119;28;20117;-72
2021/06/10 12:49:42;;;;;;;4.05;1.98;;;27.90;85.70;;;;;;5046949;28;20025;-72
2021/06/10 12:52:16;;;;;;;3.65;1.70;;;28.00;85.70;;;;;;5048280;28;20025;-72
2021/06/10 12:54:50;;;;;;;3.95;2.42;;;28.00;86.30;;;;;;5047783;28;20029;-73
2021/06/10 12:57:30;;;;;;;2.95;1.95;;;27.70;85.00;;;;;;5047441;28;20699;-72